KHNB/HNB METAR and TAF weather

Enter ICAO airport designator
Station Type Date Time Source
KHNB METAR 2019/02/17 14:56 UTC NOAA

KHNB 171456Z AUTO 11008KT 10SM OVC011 01/M02 A2977 RMK AO2 SLP088 T00061017 58005 FZRANO


Station Type Date Time Source
KHNB Decoded METAR 2019/02/17 14:56 UTC NOAA

Huntingburg, IN, United States (KHNB) 38-15N 086-57W
Feb 17, 2019 - 09:56 AM EST / 2019.02.17 1456 UTC
Wind: from the ESE (110 degrees) at 9 MPH (8 KT):0
Visibility: 10 mile(s):0
Sky conditions: overcast
Temperature: 33.1 F (0.6 C)
Windchill: 24 F (-4 C):1
Dew Point: 28.9 F (-1.7 C)
Relative Humidity: 84%
Pressure (altimeter): 29.77 in. Hg (1008 hPa)
Pressure tendency: 0.01 inches (0.5 hPa) lower than three hours ago
ob: KHNB 171456Z AUTO 11008KT 10SM OVC011 01/M02 A2977 RMK AO2 SLP088 T00061017 58005 FZRANO
cycle: 15

Station Type Date Time Source
KHNB TAF 2019/02/17 12:33 UTC NOAA

TAF KHNB 171132Z 1712/1812 10007KT P6SM OVC015
FM171530 VRB04KT 6SM -RA BR OVC007
FM171700 VRB04KT P6SM OVC005
FM172000 27007KT P6SM OVC012
FM180200 28009KT P6SM OVC022


Example: see airport list